sensor_id;sensor_type;location;lat;lon;timestamp;P1;durP1;ratioP1;P2;durP2;ratioP2
45692;SDS011;31402;44.752;-0.374;2022-11-28T00:01:03;6.23;;;1.33;;
45692;SDS011;31402;44.752;-0.374;2022-11-28T00:03:29;5.27;;;1.03;;
45692;SDS011;31402;44.752;-0.374;2022-11-28T00:05:55;6.20;;;1.27;;
45692;SDS011;31402;44.752;-0.374;2022-11-28T00:08:21;6.07;;;1.30;;
45692;SDS011;31402;44.752;-0.374;2022-11-28T00:10:47;7.50;;;1.30;;
45692;SDS011;31402;44.752;-0.374;2022-11-28T00:13:13;6.67;;;1.23;;
45692;SDS011;31402;44.752;-0.374;2022-11-28T00:15:38;4.37;;;1.10;;
45692;SDS011;31402;44.752;-0.374;2022-11-28T00:18:04;4.30;;;1.00;;
45692;SDS011;31402;44.752;-0.374;2022-11-28T00:20:31;7.77;;;1.43;;
45692;SDS011;31402;44.752;-0.374;2022-11-28T00:22:57;5.03;;;1.07;;
45692;SDS011;31402;44.752;-0.374;2022-11-28T00:25:22;5.97;;;1.50;;
45692;SDS011;31402;44.752;-0.374;2022-11-28T00:27:48;8.03;;;1.30;;
45692;SDS011;31402;44.752;-0.374;2022-11-28T00:30:14;8.80;;;1.30;;
45692;SDS011;31402;44.752;-0.374;2022-11-28T00:32:40;6.23;;;1.30;;
45692;SDS011;31402;44.752;-0.374;2022-11-28T00:35:05;8.33;;;1.20;;
45692;SDS011;31402;44.752;-0.374;2022-11-28T00:37:31;7.13;;;1.23;;
45692;SDS011;31402;44.752;-0.374;2022-11-28T00:39:57;7.27;;;1.50;;
45692;SDS011;31402;44.752;-0.374;2022-11-28T00:42:23;5.50;;;1.33;;
45692;SDS011;31402;44.752;-0.374;2022-11-28T00:44:48;4.53;;;1.10;;
45692;SDS011;31402;44.752;-0.374;2022-11-28T00:47:14;4.70;;;1.10;;
45692;SDS011;31402;44.752;-0.374;2022-11-28T00:49:40;6.83;;;1.30;;
45692;SDS011;31402;44.752;-0.374;2022-11-28T00:52:06;5.77;;;1.20;;
45692;SDS011;31402;44.752;-0.374;2022-11-28T00:54:32;9.40;;;1.40;;
45692;SDS011;31402;44.752;-0.374;2022-11-28T00:56:58;5.13;;;1.20;;
45692;SDS011;31402;44.752;-0.374;2022-11-28T00:59:24;8.53;;;1.70;;
45692;SDS011;31402;44.752;-0.374;2022-11-28T01:01:49;7.50;;;1.50;;
45692;SDS011;31402;44.752;-0.374;2022-11-28T01:04:15;9.17;;;1.90;;
45692;SDS011;31402;44.752;-0.374;2022-11-28T01:06:43;9.73;;;1.60;;
45692;SDS011;31402;44.752;-0.374;2022-11-28T01:09:12;10.40;;;1.70;;
45692;SDS011;31402;44.752;-0.374;2022-11-28T01:11:46;12.50;;;2.00;;
45692;SDS011;31402;44.752;-0.374;2022-11-28T01:14:14;10.53;;;1.87;;
45692;SDS011;31402;44.752;-0.374;2022-11-28T01:16:40;11.80;;;2.30;;
45692;SDS011;31402;44.752;-0.374;2022-11-28T01:19:06;11.93;;;1.83;;
45692;SDS011;31402;44.752;-0.374;2022-11-28T01:21:32;10.47;;;1.90;;
45692;SDS011;31402;44.752;-0.374;2022-11-28T01:23:58;16.13;;;1.80;;
45692;SDS011;31402;44.752;-0.374;2022-11-28T01:26:25;14.07;;;2.10;;
45692;SDS011;31402;44.752;-0.374;2022-11-28T01:28:53;14.03;;;1.80;;
45692;SDS011;31402;44.752;-0.374;2022-11-28T01:31:21;16.37;;;2.07;;
45692;SDS011;31402;44.752;-0.374;2022-11-28T01:33:48;13.53;;;2.23;;
45692;SDS011;31402;44.752;-0.374;2022-11-28T01:36:15;13.83;;;2.00;;
45692;SDS011;31402;44.752;-0.374;2022-11-28T01:38:42;14.90;;;2.40;;
45692;SDS011;31402;44.752;-0.374;2022-11-28T01:41:08;10.30;;;2.00;;
45692;SDS011;31402;44.752;-0.374;2022-11-28T01:43:35;11.77;;;2.67;;
45692;SDS011;31402;44.752;-0.374;2022-11-28T01:46:03;12.20;;;2.00;;
45692;SDS011;31402;44.752;-0.374;2022-11-28T01:48:36;16.03;;;2.30;;
45692;SDS011;31402;44.752;-0.374;2022-11-28T01:51:05;14.17;;;2.10;;
45692;SDS011;31402;44.752;-0.374;2022-11-28T01:53:35;14.07;;;2.03;;
45692;SDS011;31402;44.752;-0.374;2022-11-28T01:56:05;17.53;;;2.57;;
45692;SDS011;31402;44.752;-0.374;2022-11-28T01:58:42;14.37;;;2.37;;
45692;SDS011;31402;44.752;-0.374;2022-11-28T02:01:11;17.47;;;2.73;;
45692;SDS011;31402;44.752;-0.374;2022-11-28T02:03:42;18.23;;;2.43;;
45692;SDS011;31402;44.752;-0.374;2022-11-28T02:06:10;16.50;;;2.67;;
45692;SDS011;31402;44.752;-0.374;2022-11-28T02:08:38;16.77;;;2.50;;
45692;SDS011;31402;44.752;-0.374;2022-11-28T02:11:09;15.27;;;2.20;;
45692;SDS011;31402;44.752;-0.374;2022-11-28T02:22:22;21.83;;;3.17;;
45692;SDS011;31402;44.752;-0.374;2022-11-28T02:30:19;18.87;;;2.27;;
45692;SDS011;31402;44.752;-0.374;2022-11-28T02:35:41;13.93;;;2.20;;
45692;SDS011;31402;44.752;-0.374;2022-11-28T02:41:35;18.27;;;2.30;;
45692;SDS011;31402;44.752;-0.374;2022-11-28T02:44:34;19.93;;;2.40;;
45692;SDS011;31402;44.752;-0.374;2022-11-28T02:52:49;19.53;;;2.83;;
45692;SDS011;31402;44.752;-0.374;2022-11-28T02:55:29;20.57;;;2.87;;
45692;SDS011;31402;44.752;-0.374;2022-11-28T02:57:55;22.63;;;2.70;;
45692;SDS011;31402;44.752;-0.374;2022-11-28T03:00:25;17.93;;;2.80;;
45692;SDS011;31402;44.752;-0.374;2022-11-28T03:10:50;20.90;;;2.87;;
45692;SDS011;31402;44.752;-0.374;2022-11-28T03:13:39;18.27;;;2.67;;
45692;SDS011;31402;44.752;-0.374;2022-11-28T03:19:09;16.20;;;2.63;;
45692;SDS011;31402;44.752;-0.374;2022-11-28T03:22:13;19.23;;;2.70;;
45692;SDS011;31402;44.752;-0.374;2022-11-28T03:24:52;16.33;;;2.83;;
45692;SDS011;31402;44.752;-0.374;2022-11-28T03:27:29;20.00;;;2.87;;
45692;SDS011;31402;44.752;-0.374;2022-11-28T03:30:01;18.10;;;2.73;;
45692;SDS011;31402;44.752;-0.374;2022-11-28T03:32:33;27.07;;;4.10;;
45692;SDS011;31402;44.752;-0.374;2022-11-28T03:35:04;20.60;;;3.20;;
45692;SDS011;31402;44.752;-0.374;2022-11-28T03:37:36;18.20;;;2.73;;
45692;SDS011;31402;44.752;-0.374;2022-11-28T03:40:07;16.00;;;2.40;;
45692;SDS011;31402;44.752;-0.374;2022-11-28T03:42:40;32.67;;;1.73;;
45692;SDS011;31402;44.752;-0.374;2022-11-28T03:45:12;68.37;;;2.03;;
45692;SDS011;31402;44.752;-0.374;2022-11-28T03:47:47;6.53;;;0.80;;
45692;SDS011;31402;44.752;-0.374;2022-11-28T03:50:34;9.80;;;1.40;;
45692;SDS011;31402;44.752;-0.374;2022-11-28T03:53:10;11.03;;;1.97;;
45692;SDS011;31402;44.752;-0.374;2022-11-28T03:55:47;12.17;;;2.03;;
45692;SDS011;31402;44.752;-0.374;2022-11-28T04:03:54;12.13;;;2.60;;
45692;SDS011;31402;44.752;-0.374;2022-11-28T04:06:44;15.20;;;2.77;;
45692;SDS011;31402;44.752;-0.374;2022-11-28T04:09:19;24.93;;;2.70;;
45692;SDS011;31402;44.752;-0.374;2022-11-28T04:11:54;123.93;;;4.07;;
45692;SDS011;31402;44.752;-0.374;2022-11-28T04:14:25;9.43;;;1.80;;
45692;SDS011;31402;44.752;-0.374;2022-11-28T04:19:37;14.40;;;1.23;;
45692;SDS011;31402;44.752;-0.374;2022-11-28T04:22:15;13.10;;;1.83;;
45692;SDS011;31402;44.752;-0.374;2022-11-28T04:24:52;22.23;;;2.80;;
45692;SDS011;31402;44.752;-0.374;2022-11-28T04:27:22;21.83;;;2.60;;
45692;SDS011;31402;44.752;-0.374;2022-11-28T04:29:56;17.13;;;2.67;;
45692;SDS011;31402;44.752;-0.374;2022-11-28T04:32:24;19.50;;;2.60;;
45692;SDS011;31402;44.752;-0.374;2022-11-28T04:34:54;18.40;;;2.93;;
45692;SDS011;31402;44.752;-0.374;2022-11-28T04:37:24;16.67;;;2.70;;
45692;SDS011;31402;44.752;-0.374;2022-11-28T04:39:52;19.50;;;2.60;;
45692;SDS011;31402;44.752;-0.374;2022-11-28T04:42:21;15.47;;;2.33;;
45692;SDS011;31402;44.752;-0.374;2022-11-28T04:47:26;18.67;;;2.50;;
45692;SDS011;31402;44.752;-0.374;2022-11-28T04:49:52;11.37;;;2.30;;
45692;SDS011;31402;44.752;-0.374;2022-11-28T04:55:09;16.93;;;2.87;;
45692;SDS011;31402;44.752;-0.374;2022-11-28T04:57:45;17.17;;;2.83;;
45692;SDS011;31402;44.752;-0.374;2022-11-28T05:00:17;24.80;;;2.50;;
45692;SDS011;31402;44.752;-0.374;2022-11-28T05:02:44;14.80;;;2.30;;
45692;SDS011;31402;44.752;-0.374;2022-11-28T05:05:14;19.13;;;2.70;;
45692;SDS011;31402;44.752;-0.374;2022-11-28T05:07:49;15.63;;;2.53;;
45692;SDS011;31402;44.752;-0.374;2022-11-28T05:10:16;18.43;;;2.60;;
45692;SDS011;31402;44.752;-0.374;2022-11-28T05:12:42;18.93;;;2.57;;
45692;SDS011;31402;44.752;-0.374;2022-11-28T05:15:08;14.87;;;2.60;;
45692;SDS011;31402;44.752;-0.374;2022-11-28T05:17:35;15.97;;;2.30;;
45692;SDS011;31402;44.752;-0.374;2022-11-28T05:20:01;16.70;;;2.40;;
45692;SDS011;31402;44.752;-0.374;2022-11-28T05:22:28;16.27;;;2.23;;
45692;SDS011;31402;44.752;-0.374;2022-11-28T05:24:54;14.47;;;2.20;;
45692;SDS011;31402;44.752;-0.374;2022-11-28T05:27:20;13.23;;;2.33;;
45692;SDS011;31402;44.752;-0.374;2022-11-28T05:29:45;12.63;;;2.07;;
45692;SDS011;31402;44.752;-0.374;2022-11-28T05:32:12;13.93;;;2.17;;
45692;SDS011;31402;44.752;-0.374;2022-11-28T05:34:38;10.13;;;2.10;;
45692;SDS011;31402;44.752;-0.374;2022-11-28T05:37:04;11.70;;;2.10;;
45692;SDS011;31402;44.752;-0.374;2022-11-28T05:39:30;69.17;;;8.90;;
45692;SDS011;31402;44.752;-0.374;2022-11-28T05:41:56;65.70;;;8.90;;
45692;SDS011;31402;44.752;-0.374;2022-11-28T05:44:23;53.63;;;6.27;;
45692;SDS011;31402;44.752;-0.374;2022-11-28T05:46:49;30.10;;;4.97;;
45692;SDS011;31402;44.752;-0.374;2022-11-28T05:49:14;19.30;;;3.07;;
45692;SDS011;31402;44.752;-0.374;2022-11-28T05:51:40;11.53;;;2.20;;
45692;SDS011;31402;44.752;-0.374;2022-11-28T05:54:06;22.70;;;4.30;;
45692;SDS011;31402;44.752;-0.374;2022-11-28T05:56:32;70.77;;;9.13;;
45692;SDS011;31402;44.752;-0.374;2022-11-28T05:58:58;52.30;;;7.50;;
45692;SDS011;31402;44.752;-0.374;2022-11-28T06:01:25;43.23;;;6.53;;
45692;SDS011;31402;44.752;-0.374;2022-11-28T06:03:52;35.77;;;5.50;;
45692;SDS011;31402;44.752;-0.374;2022-11-28T06:06:22;34.47;;;5.00;;
45692;SDS011;31402;44.752;-0.374;2022-11-28T06:08:48;26.90;;;4.00;;
45692;SDS011;31402;44.752;-0.374;2022-11-28T06:11:15;26.23;;;4.13;;
45692;SDS011;31402;44.752;-0.374;2022-11-28T06:13:41;22.77;;;3.63;;
45692;SDS011;31402;44.752;-0.374;2022-11-28T06:16:09;18.90;;;3.50;;
45692;SDS011;31402;44.752;-0.374;2022-11-28T06:18:36;19.53;;;2.43;;
45692;SDS011;31402;44.752;-0.374;2022-11-28T06:21:02;15.23;;;2.37;;
45692;SDS011;31402;44.752;-0.374;2022-11-28T06:23:29;20.10;;;3.50;;
45692;SDS011;31402;44.752;-0.374;2022-11-28T06:25:56;21.60;;;3.97;;
45692;SDS011;31402;44.752;-0.374;2022-11-28T06:28:22;20.07;;;3.10;;
45692;SDS011;31402;44.752;-0.374;2022-11-28T06:30:48;13.13;;;2.17;;
45692;SDS011;31402;44.752;-0.374;2022-11-28T06:33:14;15.93;;;2.90;;
45692;SDS011;31402;44.752;-0.374;2022-11-28T06:35:39;18.70;;;4.27;;
45692;SDS011;31402;44.752;-0.374;2022-11-28T06:38:05;38.87;;;10.13;;
45692;SDS011;31402;44.752;-0.374;2022-11-28T06:40:31;23.70;;;6.27;;
45692;SDS011;31402;44.752;-0.374;2022-11-28T06:42:57;36.10;;;8.30;;
45692;SDS011;31402;44.752;-0.374;2022-11-28T06:45:22;32.47;;;7.50;;
45692;SDS011;31402;44.752;-0.374;2022-11-28T06:47:48;29.93;;;8.17;;
45692;SDS011;31402;44.752;-0.374;2022-11-28T06:50:14;34.63;;;7.77;;
45692;SDS011;31402;44.752;-0.374;2022-11-28T06:52:40;24.87;;;7.23;;
45692;SDS011;31402;44.752;-0.374;2022-11-28T06:55:05;27.93;;;6.73;;
45692;SDS011;31402;44.752;-0.374;2022-11-28T06:57:31;28.77;;;6.03;;
45692;SDS011;31402;44.752;-0.374;2022-11-28T06:59:57;19.43;;;4.83;;
45692;SDS011;31402;44.752;-0.374;2022-11-28T07:02:23;22.17;;;4.10;;
45692;SDS011;31402;44.752;-0.374;2022-11-28T07:04:49;17.40;;;3.43;;
45692;SDS011;31402;44.752;-0.374;2022-11-28T07:07:15;30.90;;;3.07;;
45692;SDS011;31402;44.752;-0.374;2022-11-28T07:09:41;20.60;;;3.20;;
45692;SDS011;31402;44.752;-0.374;2022-11-28T07:12:07;25.07;;;3.10;;
45692;SDS011;31402;44.752;-0.374;2022-11-28T07:14:33;33.00;;;3.80;;
45692;SDS011;31402;44.752;-0.374;2022-11-28T07:16:59;42.70;;;3.93;;
45692;SDS011;31402;44.752;-0.374;2022-11-28T07:19:25;16.33;;;3.43;;
45692;SDS011;31402;44.752;-0.374;2022-11-28T07:21:51;25.37;;;4.27;;
45692;SDS011;31402;44.752;-0.374;2022-11-28T07:24:17;23.20;;;3.47;;
45692;SDS011;31402;44.752;-0.374;2022-11-28T07:26:44;17.33;;;2.90;;
45692;SDS011;31402;44.752;-0.374;2022-11-28T07:29:14;8.77;;;2.40;;
45692;SDS011;31402;44.752;-0.374;2022-11-28T07:31:41;10.77;;;2.40;;
45692;SDS011;31402;44.752;-0.374;2022-11-28T07:34:08;9.87;;;2.30;;
45692;SDS011;31402;44.752;-0.374;2022-11-28T07:36:35;14.13;;;2.77;;
45692;SDS011;31402;44.752;-0.374;2022-11-28T07:39:02;10.60;;;2.50;;
45692;SDS011;31402;44.752;-0.374;2022-11-28T07:41:29;11.27;;;2.70;;
45692;SDS011;31402;44.752;-0.374;2022-11-28T07:43:56;13.90;;;2.50;;
45692;SDS011;31402;44.752;-0.374;2022-11-28T07:46:24;9.77;;;2.00;;
45692;SDS011;31402;44.752;-0.374;2022-11-28T07:48:50;13.97;;;2.57;;
45692;SDS011;31402;44.752;-0.374;2022-11-28T07:51:18;11.63;;;1.90;;
45692;SDS011;31402;44.752;-0.374;2022-11-28T07:53:48;8.93;;;1.90;;
45692;SDS011;31402;44.752;-0.374;2022-11-28T07:56:16;13.20;;;2.30;;
45692;SDS011;31402;44.752;-0.374;2022-11-28T07:58:44;10.73;;;2.63;;
45692;SDS011;31402;44.752;-0.374;2022-11-28T08:01:15;25.20;;;5.23;;
45692;SDS011;31402;44.752;-0.374;2022-11-28T08:03:41;25.30;;;6.80;;
45692;SDS011;31402;44.752;-0.374;2022-11-28T08:06:08;31.83;;;8.10;;
45692;SDS011;31402;44.752;-0.374;2022-11-28T08:08:35;37.87;;;11.87;;
45692;SDS011;31402;44.752;-0.374;2022-11-28T08:11:03;45.67;;;8.97;;
45692;SDS011;31402;44.752;-0.374;2022-11-28T08:13:31;35.30;;;8.80;;
45692;SDS011;31402;44.752;-0.374;2022-11-28T08:15:57;30.80;;;6.00;;
45692;SDS011;31402;44.752;-0.374;2022-11-28T08:18:34;38.13;;;6.10;;
45692;SDS011;31402;44.752;-0.374;2022-11-28T08:21:10;23.87;;;5.60;;
45692;SDS011;31402;44.752;-0.374;2022-11-28T08:23:38;19.30;;;5.00;;
45692;SDS011;31402;44.752;-0.374;2022-11-28T08:26:09;20.50;;;4.37;;
45692;SDS011;31402;44.752;-0.374;2022-11-28T08:28:37;21.73;;;4.90;;
45692;SDS011;31402;44.752;-0.374;2022-11-28T08:31:07;13.63;;;3.23;;
45692;SDS011;31402;44.752;-0.374;2022-11-28T08:33:39;10.37;;;3.23;;
45692;SDS011;31402;44.752;-0.374;2022-11-28T08:36:06;7.37;;;1.83;;
45692;SDS011;31402;44.752;-0.374;2022-11-28T08:38:34;8.03;;;1.77;;
45692;SDS011;31402;44.752;-0.374;2022-11-28T08:41:02;8.07;;;1.80;;
45692;SDS011;31402;44.752;-0.374;2022-11-28T08:43:29;7.37;;;1.80;;
45692;SDS011;31402;44.752;-0.374;2022-11-28T08:45:55;8.07;;;1.93;;
45692;SDS011;31402;44.752;-0.374;2022-11-28T08:48:21;7.87;;;1.63;;
45692;SDS011;31402;44.752;-0.374;2022-11-28T08:50:47;10.30;;;1.93;;
45692;SDS011;31402;44.752;-0.374;2022-11-28T08:53:13;13.73;;;1.93;;
45692;SDS011;31402;44.752;-0.374;2022-11-28T08:55:42;6.50;;;1.83;;
45692;SDS011;31402;44.752;-0.374;2022-11-28T08:58:09;7.60;;;1.90;;
45692;SDS011;31402;44.752;-0.374;2022-11-28T09:00:35;7.90;;;1.80;;
45692;SDS011;31402;44.752;-0.374;2022-11-28T09:03:01;9.27;;;1.63;;
45692;SDS011;31402;44.752;-0.374;2022-11-28T09:05:28;8.57;;;2.10;;
45692;SDS011;31402;44.752;-0.374;2022-11-28T09:07:54;10.27;;;1.60;;
45692;SDS011;31402;44.752;-0.374;2022-11-28T09:10:20;10.67;;;2.10;;
45692;SDS011;31402;44.752;-0.374;2022-11-28T09:12:46;12.73;;;2.30;;
45692;SDS011;31402;44.752;-0.374;2022-11-28T09:15:12;12.37;;;2.60;;
45692;SDS011;31402;44.752;-0.374;2022-11-28T09:17:39;9.13;;;1.90;;
45692;SDS011;31402;44.752;-0.374;2022-11-28T09:20:05;8.53;;;1.73;;
45692;SDS011;31402;44.752;-0.374;2022-11-28T09:22:31;7.27;;;1.70;;
45692;SDS011;31402;44.752;-0.374;2022-11-28T09:24:57;12.23;;;2.63;;
45692;SDS011;31402;44.752;-0.374;2022-11-28T09:27:23;15.13;;;4.17;;
45692;SDS011;31402;44.752;-0.374;2022-11-28T09:29:49;19.03;;;5.23;;
45692;SDS011;31402;44.752;-0.374;2022-11-28T09:32:14;14.00;;;3.50;;
45692;SDS011;31402;44.752;-0.374;2022-11-28T09:34:40;12.10;;;2.47;;
45692;SDS011;31402;44.752;-0.374;2022-11-28T09:37:06;21.20;;;10.90;;
45692;SDS011;31402;44.752;-0.374;2022-11-28T09:39:32;37.63;;;20.40;;
45692;SDS011;31402;44.752;-0.374;2022-11-28T09:44:36;30.23;;;15.43;;
45692;SDS011;31402;44.752;-0.374;2022-11-28T09:47:18;24.03;;;11.17;;
45692;SDS011;31402;44.752;-0.374;2022-11-28T09:50:06;14.33;;;6.10;;
45692;SDS011;31402;44.752;-0.374;2022-11-28T09:52:48;11.80;;;4.00;;
45692;SDS011;31402;44.752;-0.374;2022-11-28T09:55:39;9.43;;;2.57;;
45692;SDS011;31402;44.752;-0.374;2022-11-28T09:58:11;7.47;;;2.10;;
45692;SDS011;31402;44.752;-0.374;2022-11-28T10:00:43;10.47;;;2.20;;
45692;SDS011;31402;44.752;-0.374;2022-11-28T10:08:24;10.73;;;1.80;;
45692;SDS011;31402;44.752;-0.374;2022-11-28T10:11:22;10.37;;;2.30;;
45692;SDS011;31402;44.752;-0.374;2022-11-28T10:20:27;9.93;;;3.40;;
45692;SDS011;31402;44.752;-0.374;2022-11-28T10:22:59;12.93;;;2.63;;
45692;SDS011;31402;44.752;-0.374;2022-11-28T10:25:35;12.03;;;2.70;;
45692;SDS011;31402;44.752;-0.374;2022-11-28T10:28:28;13.63;;;2.53;;
45692;SDS011;31402;44.752;-0.374;2022-11-28T10:31:15;16.17;;;3.57;;
45692;SDS011;31402;44.752;-0.374;2022-11-28T10:33:49;11.07;;;2.37;;
45692;SDS011;31402;44.752;-0.374;2022-11-28T10:39:21;15.40;;;4.70;;
45692;SDS011;31402;44.752;-0.374;2022-11-28T10:41:52;18.63;;;4.47;;
45692;SDS011;31402;44.752;-0.374;2022-11-28T10:50:26;9.13;;;2.00;;
45692;SDS011;31402;44.752;-0.374;2022-11-28T10:56:16;9.27;;;1.90;;
45692;SDS011;31402;44.752;-0.374;2022-11-28T11:01:36;11.33;;;1.93;;
45692;SDS011;31402;44.752;-0.374;2022-11-28T11:04:05;10.53;;;1.60;;
45692;SDS011;31402;44.752;-0.374;2022-11-28T11:06:41;10.93;;;2.17;;
45692;SDS011;31402;44.752;-0.374;2022-11-28T11:09:08;10.07;;;1.97;;
45692;SDS011;31402;44.752;-0.374;2022-11-28T11:11:40;10.30;;;1.70;;
45692;SDS011;31402;44.752;-0.374;2022-11-28T11:14:13;7.57;;;1.43;;
45692;SDS011;31402;44.752;-0.374;2022-11-28T11:17:06;11.23;;;2.37;;
45692;SDS011;31402;44.752;-0.374;2022-11-28T11:19:35;9.57;;;1.80;;
45692;SDS011;31402;44.752;-0.374;2022-11-28T11:22:14;13.03;;;2.13;;
45692;SDS011;31402;44.752;-0.374;2022-11-28T11:25:09;12.27;;;1.77;;
45692;SDS011;31402;44.752;-0.374;2022-11-28T11:27:46;8.93;;;1.70;;
45692;SDS011;31402;44.752;-0.374;2022-11-28T11:32:49;11.57;;;1.80;;
45692;SDS011;31402;44.752;-0.374;2022-11-28T11:35:23;12.00;;;1.73;;
45692;SDS011;31402;44.752;-0.374;2022-11-28T11:40:41;10.90;;;1.90;;
45692;SDS011;31402;44.752;-0.374;2022-11-28T11:43:21;10.43;;;1.57;;
45692;SDS011;31402;44.752;-0.374;2022-11-28T11:48:39;11.27;;;1.40;;
45692;SDS011;31402;44.752;-0.374;2022-11-28T11:51:11;12.90;;;1.70;;
45692;SDS011;31402;44.752;-0.374;2022-11-28T11:53:59;11.00;;;1.70;;
45692;SDS011;31402;44.752;-0.374;2022-11-28T11:56:46;11.90;;;1.80;;
45692;SDS011;31402;44.752;-0.374;2022-11-28T11:59:20;9.97;;;1.70;;
45692;SDS011;31402;44.752;-0.374;2022-11-28T12:01:53;9.93;;;1.90;;
45692;SDS011;31402;44.752;-0.374;2022-11-28T12:04:26;10.73;;;1.87;;
45692;SDS011;31402;44.752;-0.374;2022-11-28T12:07:03;9.07;;;1.53;;
45692;SDS011;31402;44.752;-0.374;2022-11-28T12:09:39;9.73;;;1.93;;
45692;SDS011;31402;44.752;-0.374;2022-11-28T12:12:16;11.90;;;1.90;;
45692;SDS011;31402;44.752;-0.374;2022-11-28T12:14:49;9.77;;;1.80;;
45692;SDS011;31402;44.752;-0.374;2022-11-28T12:17:19;14.37;;;2.00;;
45692;SDS011;31402;44.752;-0.374;2022-11-28T12:31:39;13.43;;;2.27;;
45692;SDS011;31402;44.752;-0.374;2022-11-28T12:51:14;9.97;;;1.90;;
45692;SDS011;31402;44.752;-0.374;2022-11-28T12:57:02;11.90;;;1.70;;
45692;SDS011;31402;44.752;-0.374;2022-11-28T12:59:47;7.47;;;1.70;;
45692;SDS011;31402;44.752;-0.374;2022-11-28T13:02:41;6.70;;;1.30;;
45692;SDS011;31402;44.752;-0.374;2022-11-28T13:05:36;7.27;;;1.10;;
45692;SDS011;31402;44.752;-0.374;2022-11-28T13:10:50;2.97;;;0.70;;
45692;SDS011;31402;44.752;-0.374;2022-11-28T13:13:23;4.90;;;0.90;;
45692;SDS011;31402;44.752;-0.374;2022-11-28T13:19:04;4.47;;;0.80;;
45692;SDS011;31402;44.752;-0.374;2022-11-28T13:24:49;7.90;;;1.20;;
45692;SDS011;31402;44.752;-0.374;2022-11-28T13:35:13;8.30;;;2.00;;
45692;SDS011;31402;44.752;-0.374;2022-11-28T13:38:03;10.00;;;1.70;;
45692;SDS011;31402;44.752;-0.374;2022-11-28T13:40:40;9.20;;;1.90;;
45692;SDS011;31402;44.752;-0.374;2022-11-28T13:43:28;7.50;;;1.30;;
45692;SDS011;31402;44.752;-0.374;2022-11-28T13:46:16;7.83;;;1.90;;
45692;SDS011;31402;44.752;-0.374;2022-11-28T13:53:37;8.50;;;1.33;;
45692;SDS011;31402;44.752;-0.374;2022-11-28T13:58:47;7.67;;;1.43;;
45692;SDS011;31402;44.752;-0.374;2022-11-28T14:09:07;8.17;;;1.67;;
45692;SDS011;31402;44.752;-0.374;2022-11-28T14:12:00;8.57;;;1.30;;
45692;SDS011;31402;44.752;-0.374;2022-11-28T14:25:27;12.20;;;5.80;;
45692;SDS011;31402;44.752;-0.374;2022-11-28T14:28:04;9.83;;;4.73;;
45692;SDS011;31402;44.752;-0.374;2022-11-28T14:30:39;7.53;;;1.47;;
45692;SDS011;31402;44.752;-0.374;2022-11-28T14:33:17;13.60;;;6.13;;
45692;SDS011;31402;44.752;-0.374;2022-11-28T14:41:02;11.97;;;3.60;;
45692;SDS011;31402;44.752;-0.374;2022-11-28T14:43:36;8.67;;;1.20;;
45692;SDS011;31402;44.752;-0.374;2022-11-28T14:48:40;10.60;;;2.67;;
45692;SDS011;31402;44.752;-0.374;2022-11-28T14:56:56;9.00;;;1.50;;
45692;SDS011;31402;44.752;-0.374;2022-11-28T14:59:26;6.07;;;1.37;;
45692;SDS011;31402;44.752;-0.374;2022-11-28T15:15:12;6.10;;;1.20;;
45692;SDS011;31402;44.752;-0.374;2022-11-28T15:17:38;6.30;;;1.20;;
45692;SDS011;31402;44.752;-0.374;2022-11-28T15:20:07;6.17;;;1.33;;
45692;SDS011;31402;44.752;-0.374;2022-11-28T15:22:52;10.27;;;1.70;;
45692;SDS011;31402;44.752;-0.374;2022-11-28T15:25:19;5.23;;;1.20;;
45692;SDS011;31402;44.752;-0.374;2022-11-28T15:27:47;5.33;;;1.40;;
45692;SDS011;31402;44.752;-0.374;2022-11-28T15:30:17;9.37;;;1.73;;
45692;SDS011;31402;44.752;-0.374;2022-11-28T15:32:50;6.43;;;1.63;;
45692;SDS011;31402;44.752;-0.374;2022-11-28T15:35:21;7.63;;;1.33;;
45692;SDS011;31402;44.752;-0.374;2022-11-28T15:37:47;10.47;;;1.87;;
45692;SDS011;31402;44.752;-0.374;2022-11-28T15:40:26;10.13;;;1.60;;
45692;SDS011;31402;44.752;-0.374;2022-11-28T15:42:55;8.50;;;1.50;;
45692;SDS011;31402;44.752;-0.374;2022-11-28T15:45:28;7.10;;;1.30;;
45692;SDS011;31402;44.752;-0.374;2022-11-28T15:47:57;5.20;;;1.23;;
45692;SDS011;31402;44.752;-0.374;2022-11-28T15:50:26;9.73;;;1.67;;
45692;SDS011;31402;44.752;-0.374;2022-11-28T15:52:54;6.70;;;1.50;;
45692;SDS011;31402;44.752;-0.374;2022-11-28T15:55:23;21.07;;;5.37;;
45692;SDS011;31402;44.752;-0.374;2022-11-28T15:58:08;8.30;;;2.07;;
45692;SDS011;31402;44.752;-0.374;2022-11-28T16:01:04;6.50;;;1.47;;
45692;SDS011;31402;44.752;-0.374;2022-11-28T16:03:44;7.23;;;1.40;;
45692;SDS011;31402;44.752;-0.374;2022-11-28T16:06:23;9.10;;;1.57;;
45692;SDS011;31402;44.752;-0.374;2022-11-28T16:08:57;39.33;;;14.87;;
45692;SDS011;31402;44.752;-0.374;2022-11-28T16:11:28;29.60;;;11.20;;
45692;SDS011;31402;44.752;-0.374;2022-11-28T16:13:56;25.03;;;9.00;;
45692;SDS011;31402;44.752;-0.374;2022-11-28T16:16:27;37.23;;;14.30;;
45692;SDS011;31402;44.752;-0.374;2022-11-28T16:18:56;91.40;;;35.50;;
45692;SDS011;31402;44.752;-0.374;2022-11-28T16:21:27;47.87;;;17.33;;
45692;SDS011;31402;44.752;-0.374;2022-11-28T16:23:55;11.70;;;3.83;;
45692;SDS011;31402;44.752;-0.374;2022-11-28T16:26:34;74.70;;;17.10;;
45692;SDS011;31402;44.752;-0.374;2022-11-28T16:31:29;9.67;;;2.50;;
45692;SDS011;31402;44.752;-0.374;2022-11-28T16:33:56;11.77;;;2.13;;
45692;SDS011;31402;44.752;-0.374;2022-11-28T16:36:32;39.37;;;10.90;;
45692;SDS011;31402;44.752;-0.374;2022-11-28T16:41:40;18.23;;;4.63;;
45692;SDS011;31402;44.752;-0.374;2022-11-28T16:44:14;52.63;;;15.20;;
45692;SDS011;31402;44.752;-0.374;2022-11-28T16:46:50;17.27;;;4.40;;
45692;SDS011;31402;44.752;-0.374;2022-11-28T16:49:33;11.20;;;2.43;;
45692;SDS011;31402;44.752;-0.374;2022-11-28T16:54:46;8.53;;;1.73;;
45692;SDS011;31402;44.752;-0.374;2022-11-28T16:57:19;10.67;;;2.47;;
45692;SDS011;31402;44.752;-0.374;2022-11-28T16:59:45;12.80;;;2.60;;
45692;SDS011;31402;44.752;-0.374;2022-11-28T17:02:19;14.57;;;2.23;;
45692;SDS011;31402;44.752;-0.374;2022-11-28T17:04:47;11.53;;;2.13;;
45692;SDS011;31402;44.752;-0.374;2022-11-28T17:07:19;10.17;;;2.40;;
45692;SDS011;31402;44.752;-0.374;2022-11-28T17:09:47;10.67;;;2.10;;
45692;SDS011;31402;44.752;-0.374;2022-11-28T17:12:24;10.40;;;2.23;;
45692;SDS011;31402;44.752;-0.374;2022-11-28T17:14:56;11.33;;;2.40;;
45692;SDS011;31402;44.752;-0.374;2022-11-28T17:17:22;11.03;;;2.40;;
45692;SDS011;31402;44.752;-0.374;2022-11-28T17:19:49;10.93;;;2.60;;
45692;SDS011;31402;44.752;-0.374;2022-11-28T17:22:16;10.73;;;2.37;;
45692;SDS011;31402;44.752;-0.374;2022-11-28T17:24:48;8.67;;;2.23;;
45692;SDS011;31402;44.752;-0.374;2022-11-28T17:27:18;9.97;;;2.40;;
45692;SDS011;31402;44.752;-0.374;2022-11-28T17:29:44;9.30;;;1.97;;
45692;SDS011;31402;44.752;-0.374;2022-11-28T17:32:10;9.87;;;2.30;;
45692;SDS011;31402;44.752;-0.374;2022-11-28T17:34:37;12.70;;;2.30;;
45692;SDS011;31402;44.752;-0.374;2022-11-28T17:37:05;9.67;;;2.30;;
45692;SDS011;31402;44.752;-0.374;2022-11-28T17:39:32;9.57;;;2.00;;
45692;SDS011;31402;44.752;-0.374;2022-11-28T17:41:58;7.77;;;2.07;;
45692;SDS011;31402;44.752;-0.374;2022-11-28T17:44:25;10.60;;;3.30;;
45692;SDS011;31402;44.752;-0.374;2022-11-28T17:46:53;12.27;;;5.10;;
45692;SDS011;31402;44.752;-0.374;2022-11-28T17:49:20;11.97;;;2.60;;
45692;SDS011;31402;44.752;-0.374;2022-11-28T17:51:46;22.10;;;6.57;;
45692;SDS011;31402;44.752;-0.374;2022-11-28T17:54:14;14.63;;;3.97;;
45692;SDS011;31402;44.752;-0.374;2022-11-28T17:56:42;10.63;;;3.03;;
45692;SDS011;31402;44.752;-0.374;2022-11-28T17:59:12;8.27;;;2.43;;
45692;SDS011;31402;44.752;-0.374;2022-11-28T18:01:39;12.43;;;3.07;;
45692;SDS011;31402;44.752;-0.374;2022-11-28T18:04:05;10.70;;;3.10;;